Flight Track Log - Related Links

Times and Time Zones

All times are in EDT time to prevent confusion due to time zone crossing. See the N34HD flight status page for this flight to view local times or setup timezone preferences in your user account.

Time Position Orientation Groundspeed Altitude Reporting Facility
EDT Latitude Longitude Course Direction KTS MPH feet Rate Location/Type
Wed 04:54:28 PM 40.7500 -73.4167 70° East 65 75 1,200  Level New York TRACON
Wed 04:55:28 PM 40.7667 -73.4000 37° Northeast 80 92 1,900 700 Climbing New York TRACON
Wed 04:56:28 PM 40.7500 -73.3833 143° Southeast 102 117 2,600 550 Climbing New York TRACON
Wed 04:57:28 PM 40.7167 -73.3667 159° South 111 128 3,000 250 Climbing New York TRACON
Wed 04:58:28 PM 40.6833 -73.3333 143° Southeast 133 153 3,100  Climbing New York TRACON
Wed 04:59:00 PM 40.8244 -73.1496 70° East  Level FlightAware Approximate
Wed 04:59:28 PM 40.6500 -73.3167 159° South 123 142 3,000  Level New York TRACON
Wed 05:01:28 PM 40.6167 -73.2500 123° Southeast 124 143 3,000  Level New York TRACON
Wed 05:03:28 PM 40.6167 -73.1667 90° East 119 137 3,000  Level New York TRACON
Wed 05:04:28 PM 40.6167 -73.1333 90° East 110 127 3,000  Level New York TRACON
Wed 05:05:28 PM 40.6333 -73.0833 66° East 112 129 3,000  Level New York TRACON
Wed 05:06:28 PM 40.6500 -73.0500 57° Northeast 111 128 3,000 50 Level New York TRACON
Wed 05:07:28 PM 40.6667 -73.0167 57° Northeast 109 125 3,100  Climbing New York TRACON
Wed 05:08:28 PM 40.6667 -72.9833 90° East 114 131 3,000 -100 Descending New York TRACON
Wed 05:09:28 PM 40.6833 -72.9333 66° East 112 129 2,900  Descending New York TRACON
Wed 05:10:28 PM 40.7000 -72.9000 57° Northeast 113 130 3,000 50 Climbing New York TRACON
Wed 05:11:28 PM 40.7000 -72.8667 90° East 114 131 3,000 50 Level New York TRACON
Wed 05:12:28 PM 40.7167 -72.8167 66° East 115 132 3,100  Climbing New York TRACON
Wed 05:13:28 PM 40.7333 -72.7833 57° Northeast 117 135 3,000 -50 Descending New York TRACON
Wed 05:14:28 PM 40.7333 -72.7500 90° East 113 130 3,000  Level New York TRACON
Wed 05:15:28 PM 40.7500 -72.7167 57° Northeast 114 131 3,000  Level New York TRACON
Wed 05:16:28 PM 40.7667 -72.6667 66° East 139 160 3,000  Level New York TRACON
Wed 05:17:28 PM 40.7833 -72.6333 57° Northeast 114 131 3,000  Level New York TRACON
Wed 05:18:28 PM 40.8000 -72.6000 57° Northeast 113 130 3,000  Level New York TRACON
Wed 05:20:28 PM 40.8167 -72.5167 75° East 112 129 3,000  Level New York TRACON
Wed 05:21:29 PM 40.8333 -72.4833 57° Northeast 111 128 3,000  Level New York TRACON
Wed 05:22:29 PM 40.8500 -72.4500 57° Northeast 109 125 3,000  Level New York TRACON
Wed 05:23:28 PM 40.8667 -72.4167 57° Northeast 110 127 3,000 50 Level New York TRACON
Wed 05:24:28 PM 40.9000 -72.4000 21° North 106 122 3,100  Climbing New York TRACON
Wed 05:25:29 PM 40.9167 -72.3667 57° Northeast 109 125 3,000 -50 Descending New York TRACON
Wed 05:26:29 PM 40.9167 -72.3333 90° East 123 142 3,000  Level New York TRACON
Wed 05:27:28 PM 40.9333 -72.3000 56° Northeast 106 122 3,000  Level New York TRACON
Wed 05:28:28 PM 40.9333 -72.3167 270° West 104 120 3,000 50 Level New York TRACON
Wed 05:29:28 PM 40.9167 -72.3500 237° Southwest 91 105 3,100 -150 Climbing New York TRACON
Wed 05:30:28 PM 40.9333 -72.3667 323° Northwest 90 104 2,700 -700 Descending New York TRACON
Wed 05:31:28 PM 40.9500 -72.4000 304° West 93 107 1,700 -574 Descending New York TRACON
Wed 05:32:23 PM 40.9667 -72.4333 304° West 82 94 1,600 150 Descending New York TRACON
Wed 05:33:28 PM 40.9667 -72.4500 270° West 76 87 2,000 192 Climbing New York TRACON
Wed 05:34:28 PM 40.9833 -72.4833 304° West 83 96 2,000 -50 Level New York TRACON
Wed 05:35:29 PM 40.9500 -72.4833 180° South 129 148 1,900 -50 Descending New York TRACON
Wed 05:36:28 PM 40.9333 -72.5000 217° Southwest 86 99 1,900 -150 Level New York TRACON
Wed 05:37:29 PM 40.9167 -72.5333 237° Southwest 90 104 1,600 -149 Descending New York TRACON
Wed 05:38:29 PM 40.9000 -72.5500 217° Southwest 90 104 1,600 -303 Level New York TRACON
Wed 05:39:28 PM 40.8833 -72.5833 237° Southwest 97 112 1,000 -450 Descending New York TRACON
Wed 05:40:29 PM 40.8667 -72.6000 217° Southwest 85 98 700 -295 Descending New York TRACON
Wed 05:42:00 PM 40.8333 -72.6167 252° West  Level FlightAware Approximate
Wed 05:49:00 PM 40.8437 -72.6318 252° West  Level Estimated
Wed 05:50:00 PM 40.8437 -72.6318 252° West  Level Estimated
Wed 05:51:00 PM 40.8437 -72.6318 252° West  Level Estimated

Login

Don't have an account? Register now (free) for customized features, flight alerts, and more!